Wetterdaten: Woche 30.12.02 - 05.01.03 (KW1)
Datum Zeit Temperatur Luftfeuchte Luftdruck Regenmenge Wind Richtung Taupunkt Windchill
30.12.2002 00:00 11.2 C 72 % 1011.2 hPa 0.0 l/m 28.2 km/h (4 Bft) W 6.2 C 11.2 C
30.12.2002 01:00 11.6 C 69 % 1010.7 hPa 0.0 l/m 25.3 km/h (4 Bft) W-NW 6.1 C 11.6 C
30.12.2002 02:00 11.5 C 70 % 1011.1 hPa 0.0 l/m 15.7 km/h (3 Bft) W-NW 6.2 C 11.5 C
30.12.2002 03:00 10.8 C 74 % 1011.3 hPa 0.0 l/m 9.5 km/h (2 Bft) W 6.3 C 10.7 C
30.12.2002 04:00 9.4 C 86 % 1010.4 hPa 0.3 l/m 6.9 km/h (2 Bft) W 7.2 C 8.6 C
30.12.2002 05:00 9.5 C 88 % 1010.2 hPa 0.6 l/m 13.0 km/h (3 Bft) W-NW 7.5 C 7.7 C
30.12.2002 06:00 9.4 C 92 % 1010.2 hPa 1.5 l/m 10.8 km/h (2 Bft) W 8.1 C 8.0 C
30.12.2002 07:00 9.3 C 94 % 1010.2 hPa 1.5 l/m 0.7 km/h (0 Bft) S-SO 8.3 C 9.3 C
30.12.2002 08:00 9.2 C 95 % 1011.3 hPa 2.4 l/m 1.3 km/h (1 Bft) W-NW 8.4 C 9.1 C
30.12.2002 09:00 9.3 C 95 % 1011.3 hPa 0.6 l/m 4.4 km/h (1 Bft) W-NW 8.6 C 8.8 C
30.12.2002 10:00 9.9 C 86 % 1010.4 hPa 0.0 l/m 2.7 km/h (1 Bft) S-SO 7.7 C 9.8 C
30.12.2002 11:00 10.3 C 81 % 1010.2 hPa 0.0 l/m 6.0 km/h (2 Bft) S 7.1 C 10.2 C
30.12.2002 12:00 11.0 C 76 % 1009.3 hPa 0.0 l/m 1.6 km/h (1 Bft) SO 6.9 C 11.0 C
30.12.2002 13:00 12.2 C 70 % 1008.9 hPa 0.0 l/m 3.0 km/h (1 Bft) W 6.8 C 12.2 C
30.12.2002 14:00 12.0 C 69 % 1008.1 hPa 0.0 l/m 2.2 km/h (1 Bft) W-NW 6.5 C 12.0 C
30.12.2002 15:00 11.1 C 73 % 1008.1 hPa 0.0 l/m 4.5 km/h (1 Bft) S-SO 6.3 C 11.1 C
30.12.2002 16:00 10.1 C 75 % 1007.1 hPa 0.0 l/m 4.6 km/h (1 Bft) SO 5.8 C 10.0 C
30.12.2002 17:00 9.2 C 81 % 1007.1 hPa 0.0 l/m 4.6 km/h (1 Bft) SO 6.1 C 8.7 C
30.12.2002 18:00 9.4 C 81 % 1007.3 hPa 0.0 l/m 5.1 km/h (1 Bft) SO 6.2 C 8.8 C
30.12.2002 19:00 9.0 C 82 % 1008.1 hPa 0.0 l/m 2.2 km/h (1 Bft) S-SO 6.0 C 8.8 C
30.12.2002 20:00 8.8 C 83 % 1008.1 hPa 0.0 l/m 1.4 km/h (1 Bft) SW 6.0 C 8.7 C
30.12.2002 21:00 8.5 C 85 % 1008.1 hPa 0.0 l/m 0.9 km/h (0 Bft) W-SW 6.1 C 8.4 C
30.12.2002 22:00 9.2 C 80 % 1008.1 hPa 0.0 l/m 9.3 km/h (2 Bft) NW 5.9 C 8.1 C
30.12.2002 23:00 9.3 C 80 % 1008.1 hPa 0.0 l/m 17.9 km/h (3 Bft) NW 6.0 C 6.8 C
31.12.2002 00:00 8.7 C 82 % 1007.3 hPa 0.0 l/m 1.5 km/h (1 Bft) NW 5.8 C 8.5 C
31.12.2002 01:00 8.2 C 89 % 1007.5 hPa 0.0 l/m 1.1 km/h (0 Bft) W-NW 6.4 C 8.1 C
31.12.2002 02:00 7.7 C 92 % 1007.3 hPa 0.0 l/m 1.2 km/h (1 Bft) SO 6.5 C 7.7 C
31.12.2002 03:00 7.8 C 94 % 1007.7 hPa 0.0 l/m 3.6 km/h (1 Bft) S-SO 6.9 C 7.3 C
31.12.2002 04:00 8.5 C 90 % 1007.3 hPa 0.0 l/m 13.6 km/h (3 Bft) W-NW 6.8 C 6.4 C
31.12.2002 05:00 8.3 C 89 % 1007.6 hPa 0.0 l/m 13.1 km/h (3 Bft) W-NW 6.5 C 6.2 C
31.12.2002 06:00 8.3 C 86 % 1008.1 hPa 0.0 l/m 24.2 km/h (4 Bft) W-NW 6.1 C 4.8 C
31.12.2002 07:00 8.3 C 82 % 1008.5 hPa 0.0 l/m 22.6 km/h (4 Bft) W-NW 5.5 C 5.1 C
31.12.2002 08:00 8.2 C 82 % 1009.2 hPa 0.0 l/m 19.9 km/h (4 Bft) W-NW 5.2 C 5.2 C
31.12.2002 09:00 8.2 C 80 % 1010.2 hPa 0.0 l/m 15.2 km/h (3 Bft) W-NW 4.9 C 5.8 C
31.12.2002 10:00 8.5 C 73 % 1010.2 hPa 0.0 l/m 2.4 km/h (1 Bft) W 3.9 C 8.2 C
31.12.2002 11:00 9.1 C 67 % 1010.2 hPa 0.0 l/m 5.3 km/h (1 Bft) W-NW 3.3 C 8.4 C
31.12.2002 12:00 9.3 C 61 % 1010.2 hPa 0.0 l/m 7.7 km/h (2 Bft) W 2.2 C 8.2 C
31.12.2002 13:00 8.2 C 73 % 1010.2 hPa 0.3 l/m 9.3 km/h (2 Bft) NW 3.5 C 6.7 C
31.12.2002 14:00 7.2 C 88 % 1010.2 hPa 0.3 l/m 0.6 km/h (0 Bft) SO 5.3 C 7.2 C
31.12.2002 15:00 7.2 C 88 % 1010.4 hPa 0.0 l/m 2.5 km/h (1 Bft) S 5.3 C 6.9 C
31.12.2002 16:00 7.0 C 89 % 1011.3 hPa 0.0 l/m 0.9 km/h (0 Bft) S-SO 5.3 C 6.9 C
31.12.2002 17:00 6.8 C 91 % 1012.3 hPa 0.0 l/m 0.1 km/h (0 Bft) SO 5.4 C 6.8 C
31.12.2002 18:00 6.7 C 92 % 1012.3 hPa 0.0 l/m 3.3 km/h (1 Bft) SO 5.6 C 6.2 C
31.12.2002 19:00 6.7 C 93 % 1013.3 hPa 0.0 l/m 2.8 km/h (1 Bft) SO 5.6 C 6.2 C
31.12.2002 20:00 6.7 C 90 % 1013.3 hPa 0.0 l/m 2.7 km/h (1 Bft) S 5.1 C 6.3 C
31.12.2002 21:00 6.7 C 89 % 1013.8 hPa 0.0 l/m 1.7 km/h (1 Bft) S-SW 5.0 C 6.5 C
31.12.2002 22:00 6.4 C 90 % 1014.4 hPa 0.0 l/m 1.4 km/h (1 Bft) W 4.9 C 6.2 C
31.12.2002 23:00 6.4 C 87 % 1014.4 hPa 0.0 l/m 0.1 km/h (0 Bft) - - 4.4 C 6.4 C
01.01.2003 00:00 6.3 C 88 % 1014.4 hPa 0.0 l/m 1.9 km/h (1 Bft) W 4.3 C 6.0 C
01.01.2003 01:00 6.3 C 87 % 1015.4 hPa 0.0 l/m 0.6 km/h (0 Bft) S-SW 4.3 C 6.3 C
01.01.2003 02:00 6.3 C 87 % 1015.4 hPa 0.0 l/m 0.8 km/h (0 Bft) S-SO 4.3 C 6.3 C
01.01.2003 03:00 6.4 C 87 % 1015.4 hPa 0.0 l/m 0.8 km/h (0 Bft) S 4.3 C 6.4 C
01.01.2003 04:00 6.4 C 87 % 1015.4 hPa 0.0 l/m 1.3 km/h (1 Bft) SW 4.4 C 6.3 C
01.01.2003 05:00 6.0 C 91 % 1015.4 hPa 0.0 l/m 1.2 km/h (1 Bft) S-SO 4.6 C 5.8 C
01.01.2003 06:00 5.9 C 91 % 1015.4 hPa 0.0 l/m 1.0 km/h (0 Bft) SO 4.5 C 5.8 C
01.01.2003 07:00 5.9 C 90 % 1015.4 hPa 0.3 l/m 3.1 km/h (1 Bft) S-SO 4.4 C 5.3 C
01.01.2003 08:00 6.0 C 88 % 1015.4 hPa 0.0 l/m 1.3 km/h (1 Bft) W-SW 4.1 C 5.9 C
01.01.2003 09:00 6.4 C 84 % 1015.4 hPa 0.0 l/m 1.1 km/h (1 Bft) O-SO 3.8 C 6.3 C
01.01.2003 10:00 6.9 C 81 % 1015.4 hPa 0.0 l/m 1.4 km/h (1 Bft) O-SO 3.8 C 6.7 C
01.01.2003 11:00 7.3 C 78 % 1014.5 hPa 0.0 l/m 4.8 km/h (1 Bft) S-SO 3.7 C 6.7 C
01.01.2003 12:00 8.3 C 70 % 1013.7 hPa 0.0 l/m 7.6 km/h (2 Bft) SW 3.2 C 7.2 C
01.01.2003 13:00 9.0 C 65 % 1012.6 hPa 0.0 l/m 14.6 km/h (3 Bft) W 2.7 C 6.8 C
01.01.2003 14:00 9.1 C 63 % 1011.4 hPa 0.0 l/m 10.2 km/h (2 Bft) S-SO 2.4 C 7.7 C
01.01.2003 15:00 8.9 C 64 % 1011.0 hPa 0.0 l/m 14.1 km/h (3 Bft) S-SO 2.5 C 6.9 C
01.01.2003 16:00 8.4 C 65 % 1010.2 hPa 0.0 l/m 17.1 km/h (3 Bft) SO 2.2 C 5.7 C
01.01.2003 17:00 8.0 C 69 % 1009.2 hPa 0.0 l/m 18.2 km/h (3 Bft) SO 2.5 C 5.1 C
01.01.2003 18:00 6.9 C 82 % 1009.2 hPa 1.5 l/m 13.8 km/h (3 Bft) SO 4.1 C 4.5 C
01.01.2003 19:00 7.2 C 81 % 1008.4 hPa 0.0 l/m 13.1 km/h (3 Bft) S 4.2 C 5.1 C
01.01.2003 20:00 8.4 C 77 % 1007.3 hPa 0.3 l/m 20.3 km/h (4 Bft) S-SW 4.5 C 5.6 C
01.01.2003 21:00 9.2 C 73 % 1007.1 hPa 0.0 l/m 21.6 km/h (4 Bft) S 4.5 C 6.2 C
01.01.2003 22:00 10.8 C 68 % 1006.5 hPa 0.0 l/m 25.5 km/h (4 Bft) SW 5.2 C 10.5 C
01.01.2003 23:00 11.1 C 66 % 1006.1 hPa 0.0 l/m 24.7 km/h (4 Bft) S 4.8 C 11.1 C
02.01.2003 00:00 11.4 C 68 % 1006.1 hPa 0.0 l/m 26.7 km/h (4 Bft) SW 5.6 C 11.4 C
02.01.2003 01:00 11.8 C 66 % 1006.2 hPa 0.0 l/m 15.8 km/h (3 Bft) SW 5.6 C 11.8 C
02.01.2003 02:00 10.4 C 75 % 1006.1 hPa 0.9 l/m 12.4 km/h (3 Bft) S-SO 6.0 C 9.7 C
02.01.2003 03:00 9.4 C 89 % 1006.1 hPa 0.3 l/m 7.4 km/h (2 Bft) W 7.7 C 8.5 C
02.01.2003 04:00 9.8 C 85 % 1005.8 hPa 0.0 l/m 11.1 km/h (2 Bft) SW 7.4 C 8.7 C
02.01.2003 05:00 10.1 C 82 % 1005.0 hPa 0.6 l/m 13.4 km/h (3 Bft) SO 7.2 C 9.4 C
02.01.2003 06:00 10.1 C 88 % 1004.4 hPa 1.2 l/m 17.2 km/h (3 Bft) W-SW 8.2 C 9.8 C
02.01.2003 07:00 9.9 C 90 % 1004.0 hPa 1.8 l/m 20.2 km/h (4 Bft) SW 8.3 C 7.7 C
02.01.2003 08:00 9.7 C 92 % 1003.3 hPa 0.9 l/m 14.3 km/h (3 Bft) S-SW 8.4 C 7.8 C
02.01.2003 09:00 9.8 C 92 % 1002.4 hPa 2.1 l/m 18.6 km/h (3 Bft) S 8.6 C 7.6 C
02.01.2003 10:00 10.5 C 92 % 1001.8 hPa 0.9 l/m 24.6 km/h (4 Bft) SW 9.2 C 10.5 C
02.01.2003 11:00 10.7 C 87 % 1000.7 hPa 0.9 l/m 17.6 km/h (3 Bft) S-SW 8.7 C 10.7 C
02.01.2003 12:00 10.6 C 88 % 999.1 hPa 0.3 l/m 21.5 km/h (4 Bft) S-SO 8.7 C 10.6 C
02.01.2003 13:00 11.3 C 84 % 997.5 hPa 1.2 l/m 29.0 km/h (5 Bft) SW 8.8 C 11.3 C
02.01.2003 14:00 10.9 C 87 % 997.6 hPa 4.2 l/m 50.7 km/h (7 Bft) W-NW 8.8 C 10.9 C
02.01.2003 15:00 10.4 C 89 % 996.5 hPa 0.6 l/m 21.5 km/h (4 Bft) W-NW 8.6 C 10.4 C
02.01.2003 16:00 11.0 C 88 % 995.6 hPa 0.0 l/m 11.0 km/h (2 Bft) S-SW 9.2 C 11.0 C
02.01.2003 17:00 12.5 C 75 % 995.1 hPa 0.0 l/m 30.8 km/h (5 Bft) W-SW 8.2 C 12.5 C
02.01.2003 18:00 14.3 C 53 % 996.2 hPa 0.0 l/m 61.9 km/h (7 Bft) W-NW 4.8 C 14.3 C
02.01.2003 19:00 14.2 C 43 % 997.4 hPa 0.0 l/m 72.7 km/h (8 Bft) W-NW 1.6 C 14.2 C
02.01.2003 20:00 12.5 C 47 % 999.4 hPa 0.0 l/m 58.8 km/h (7 Bft) W-NW 1.4 C 12.5 C
02.01.2003 21:00 10.6 C 60 % 1001.4 hPa 0.0 l/m 55.7 km/h (7 Bft) W-NW 3.1 C 9.9 C
02.01.2003 22:00 10.6 C 55 % 1002.5 hPa 0.3 l/m 49.0 km/h (6 Bft) W-NW 2.0 C 10.6 C
02.01.2003 23:00 9.9 C 55 % 1003.8 hPa 0.0 l/m 42.4 km/h (6 Bft) W-NW 1.3 C 7.1 C
03.01.2003 00:00 9.2 C 59 % 1004.4 hPa 0.0 l/m 42.1 km/h (6 Bft) W-NW 1.7 C 4.8 C
03.01.2003 01:00 9.2 C 59 % 1005.0 hPa 0.0 l/m 36.1 km/h (5 Bft) W-NW 1.7 C 5.2 C
03.01.2003 02:00 9.6 C 51 % 1005.0 hPa 0.0 l/m 42.1 km/h (6 Bft) W-NW -0.2 C 5.3 C
03.01.2003 03:00 8.3 C 62 % 1006.0 hPa 0.0 l/m 27.8 km/h (4 Bft) W-NW 1.5 C 4.7 C
03.01.2003 04:00 6.6 C 81 % 1006.1 hPa 0.6 l/m 25.5 km/h (4 Bft) W-NW 3.6 C 2.8 C
03.01.2003 05:00 6.5 C 81 % 1006.1 hPa 0.3 l/m 24.4 km/h (4 Bft) W 3.4 C 2.6 C
03.01.2003 06:00 6.5 C 80 % 1006.1 hPa 0.0 l/m 8.1 km/h (2 Bft) W 3.3 C 5.1 C
03.01.2003 07:00 6.4 C 83 % 1006.5 hPa 1.5 l/m 8.0 km/h (2 Bft) SW 3.7 C 5.0 C
03.01.2003 08:00 5.9 C 90 % 1007.0 hPa 0.6 l/m 0.1 km/h (0 Bft) W-NW 4.3 C 5.9 C
03.01.2003 09:00 6.0 C 92 % 1007.1 hPa 0.0 l/m 2.0 km/h (1 Bft) S-SO 4.8 C 5.8 C
03.01.2003 10:00 7.6 C 78 % 1007.1 hPa 0.0 l/m 4.0 km/h (1 Bft) W-NW 4.0 C 7.0 C
03.01.2003 11:00 8.5 C 64 % 1006.8 hPa 0.0 l/m 5.8 km/h (2 Bft) W-NW 2.2 C 7.7 C
03.01.2003 12:00 9.3 C 60 % 1005.8 hPa 0.0 l/m 8.4 km/h (2 Bft) W-NW 2.0 C 8.1 C
03.01.2003 13:00 10.0 C 53 % 1004.8 hPa 0.0 l/m 23.6 km/h (4 Bft) W-NW 0.9 C 9.0 C
03.01.2003 14:00 10.2 C 48 % 1004.3 hPa 0.0 l/m 31.1 km/h (5 Bft) W-NW -0.5 C 9.3 C
03.01.2003 15:00 8.6 C 60 % 1004.7 hPa 0.0 l/m 14.8 km/h (3 Bft) W 1.2 C 6.7 C
03.01.2003 16:00 8.2 C 66 % 1004.0 hPa 0.6 l/m 23.1 km/h (4 Bft) W-NW 2.2 C 5.0 C
03.01.2003 17:00 7.3 C 74 % 1003.7 hPa 0.0 l/m 25.7 km/h (4 Bft) W-SW 2.9 C 3.6 C
03.01.2003 18:00 8.1 C 71 % 1003.0 hPa 0.0 l/m 23.3 km/h (4 Bft) W 3.2 C 4.8 C
03.01.2003 19:00 7.3 C 81 % 1003.0 hPa 0.6 l/m 28.7 km/h (4 Bft) W-NW 4.3 C 3.2 C
03.01.2003 20:00 7.9 C 76 % 1003.0 hPa 0.0 l/m 30.6 km/h (5 Bft) W-NW 4.0 C 3.9 C
03.01.2003 21:00 8.0 C 74 % 1003.0 hPa 0.0 l/m 22.3 km/h (4 Bft) W 3.7 C 4.9 C
03.01.2003 22:00 7.7 C 78 % 1003.0 hPa 0.0 l/m 15.8 km/h (3 Bft) W 4.1 C 5.1 C
03.01.2003 23:00 7.2 C 84 % 1003.0 hPa 1.2 l/m 17.1 km/h (3 Bft) W 4.6 C 4.4 C
04.01.2003 00:00 6.6 C 90 % 1003.4 hPa 1.8 l/m 8.6 km/h (2 Bft) W-NW 5.1 C 5.1 C
04.01.2003 01:00 6.3 C 92 % 1004.0 hPa 1.2 l/m 6.4 km/h (2 Bft) NW 5.0 C 5.1 C
04.01.2003 02:00 5.8 C 94 % 1004.0 hPa 1.5 l/m 12.9 km/h (3 Bft) NW 5.0 C 3.3 C
04.01.2003 03:00 5.6 C 93 % 1004.0 hPa 2.1 l/m 4.2 km/h (1 Bft) NW 4.6 C 4.9 C
04.01.2003 04:00 5.3 C 94 % 1004.8 hPa 2.7 l/m 23.1 km/h (4 Bft) NW 4.5 C 1.3 C
04.01.2003 05:00 4.8 C 93 % 1005.0 hPa 0.3 l/m 19.5 km/h (3 Bft) NW 3.9 C 1.3 C
04.01.2003 06:00 4.3 C 94 % 1005.7 hPa 0.0 l/m 9.5 km/h (2 Bft) W-NW 3.5 C 2.5 C
04.01.2003 07:00 4.1 C 93 % 1006.1 hPa 0.0 l/m 3.7 km/h (1 Bft) SO 3.0 C 3.3 C
04.01.2003 08:00 4.4 C 93 % 1006.1 hPa 0.0 l/m 6.6 km/h (2 Bft) SO 3.3 C 2.9 C
04.01.2003 09:00 4.7 C 90 % 1005.4 hPa 0.3 l/m 0.0 km/h (0 Bft) - - 3.2 C 4.7 C
04.01.2003 10:00 5.0 C 91 % 1004.6 hPa 0.6 l/m 0.0 km/h (0 Bft) - - 3.7 C 5.0 C
04.01.2003 11:00 5.0 C 94 % 1003.5 hPa 2.7 l/m 0.2 km/h (0 Bft) S-SO 4.0 C 5.0 C
04.01.2003 12:00 5.6 C 95 % 1002.3 hPa 0.9 l/m 3.6 km/h (1 Bft) SO 4.8 C 4.9 C
04.01.2003 13:00 6.0 C 92 % 1001.2 hPa 0.3 l/m 4.1 km/h (1 Bft) SW 4.8 C 5.4 C
04.01.2003 14:00 6.2 C 88 % 1000.9 hPa 0.0 l/m 13.3 km/h (3 Bft) S 4.3 C 3.8 C
04.01.2003 15:00 6.2 C 87 % 1000.9 hPa 0.9 l/m 5.7 km/h (1 Bft) S 4.1 C 5.3 C
04.01.2003 16:00 5.8 C 91 % 1001.0 hPa 2.1 l/m 6.6 km/h (2 Bft) NW 4.5 C 4.6 C
04.01.2003 17:00 5.2 C 92 % 1001.9 hPa 0.3 l/m 12.4 km/h (3 Bft) W-NW 4.0 C 3.0 C
04.01.2003 18:00 4.3 C 92 % 1002.8 hPa 0.0 l/m 42.1 km/h (6 Bft) NW 3.1 C -1.7 C
04.01.2003 19:00 3.2 C 81 % 1004.5 hPa 0.0 l/m 42.5 km/h (6 Bft) W-NW 0.3 C -3.1 C
04.01.2003 20:00 2.9 C 75 % 1005.7 hPa 0.0 l/m 30.1 km/h (5 Bft) W-NW -1.0 C -2.7 C
04.01.2003 21:00 1.8 C 83 % 1006.7 hPa 0.0 l/m 34.6 km/h (5 Bft) W-NW -0.8 C -4.5 C
04.01.2003 22:00 1.1 C 76 % 1007.1 hPa 0.0 l/m 29.9 km/h (5 Bft) W-NW -2.7 C -5.0 C
04.01.2003 23:00 0.6 C 69 % 1007.1 hPa 0.0 l/m 36.6 km/h (5 Bft) W-NW -4.4 C -6.3 C
05.01.2003 00:00 -0.3 C 69 % 1007.9 hPa 0.0 l/m 38.8 km/h (5 Bft) W-NW -5.3 C -7.6 C
05.01.2003 01:00 -0.9 C 67 % 1008.5 hPa 0.0 l/m 29.0 km/h (5 Bft) W-NW -6.2 C -7.4 C
05.01.2003 02:00 -1.5 C 65 % 1009.3 hPa 0.0 l/m 29.0 km/h (5 Bft) W-NW -7.3 C -8.3 C
05.01.2003 03:00 -2.4 C 75 % 1010.2 hPa 0.0 l/m 32.0 km/h (5 Bft) W-NW -6.3 C -9.8 C
05.01.2003 04:00 -2.6 C 75 % 1010.2 hPa 0.0 l/m 21.3 km/h (4 Bft) W-NW -6.4 C -8.6 C
05.01.2003 05:00 -2.6 C 71 % 1010.2 hPa 0.0 l/m 15.7 km/h (3 Bft) W-NW -7.1 C -7.7 C
05.01.2003 06:00 -2.7 C 70 % 1010.4 hPa 0.0 l/m 16.5 km/h (3 Bft) W-NW -7.4 C -7.8 C
05.01.2003 07:00 -2.8 C 72 % 1011.3 hPa 0.0 l/m 15.2 km/h (3 Bft) W-NW -7.1 C -7.7 C
05.01.2003 08:00 -2.9 C 73 % 1011.3 hPa 0.0 l/m 17.4 km/h (3 Bft) W-NW -7.1 C -8.2 C
05.01.2003 09:00 -3.3 C 79 % 1011.3 hPa 0.3 l/m 14.8 km/h (3 Bft) W-NW -6.4 C -8.2 C
05.01.2003 10:00 -3.2 C 80 % 1011.9 hPa 0.0 l/m 12.0 km/h (2 Bft) W-NW -6.2 C -7.2 C
05.01.2003 11:00 -3.0 C 78 % 1011.4 hPa 0.0 l/m 10.9 km/h (2 Bft) W-NW -6.3 C -6.7 C
05.01.2003 12:00 -2.9 C 76 % 1011.3 hPa 0.0 l/m 7.8 km/h (2 Bft) W -6.6 C -5.5 C
05.01.2003 13:00 -3.0 C 77 % 1011.3 hPa 0.0 l/m 7.5 km/h (2 Bft) W-NW -6.3 C -5.7 C
05.01.2003 14:00 -2.6 C 78 % 1011.3 hPa 0.0 l/m 5.7 km/h (1 Bft) W -5.9 C -4.5 C
05.01.2003 15:00 -2.5 C 78 % 1011.3 hPa 0.0 l/m 4.5 km/h (1 Bft) W -5.7 C -4.0 C
05.01.2003 16:00 -2.4 C 79 % 1011.7 hPa 0.0 l/m 1.3 km/h (1 Bft) W-SW -5.6 C -2.7 C
05.01.2003 17:00 -2.4 C 79 % 1011.4 hPa 0.0 l/m 2.0 km/h (1 Bft) W-NW -5.5 C -3.0 C
05.01.2003 18:00 -2.5 C 81 % 1011.3 hPa 0.0 l/m 0.9 km/h (0 Bft) NW -5.3 C -2.6 C
05.01.2003 19:00 -2.4 C 79 % 1011.3 hPa 0.0 l/m 0.8 km/h (0 Bft) W-NW -5.5 C -2.6 C
05.01.2003 20:00 -2.5 C 80 % 1011.3 hPa 0.0 l/m 0.3 km/h (0 Bft) W -5.5 C -2.5 C
05.01.2003 21:00 -2.5 C 80 % 1011.3 hPa 0.0 l/m 1.7 km/h (1 Bft) W-NW -5.5 C -3.0 C
05.01.2003 22:00 -2.5 C 80 % 1011.3 hPa 0.0 l/m 1.8 km/h (1 Bft) NW -5.4 C -3.1 C
05.01.2003 23:00 -2.5 C 82 % 1011.3 hPa 0.0 l/m 0.4 km/h (0 Bft) NW -5.2 C -2.6 C
Min-Datum _ 05.01.03 02.01.03 02.01.03 - 30.12.02 - 05.01.03 05.01.03
_ Min-Zeit 09:25 19:58 16:58 - 04:55 - 02:25 03:28
Minimum _ -3.4 C 37 % 994.6 hPa - 0.0 km/h (0 Bft) - -7.7 C -11.0 C
Max-Datum _ 02.01.03 30.12.02 01.01.03 02.01.03 02.01.03 - 02.01.03 02.01.03
_ Max-Zeit 18:58 09:25 00:57 13:00 19:10 - 14:10 18:58
Maximum _ 14.7 C 96 % 1015.4 hPa 4.2 l/m 104.8 km/h
W-NW (11 Bft)
- 9.6 C 14.7 C
Durchschnitt _ 6.6 C 79 % 1007.6 hPa #49.2 l/m 14.3 km/h (3 Bft) W-NW 3.1 C 5.0 C

Durchschnitt Minimum Temp.6.2 C
Durchschnitt Maximum Temp.7.0 C
© Kaiko 2003